sensor_id;sensor_type;location;lat;lon;timestamp;pressure;altitude;pressure_sealevel;temperature;humidity
77452;BME280;66537;52.370;4.832;2023-10-09T00:00:54;102090.63;;;15.25;100.00
77452;BME280;66537;52.370;4.832;2023-10-09T00:03:27;102093.25;;;15.25;100.00
77452;BME280;66537;52.370;4.832;2023-10-09T00:05:53;102099.03;;;15.36;100.00
77452;BME280;66537;52.370;4.832;2023-10-09T00:08:19;102099.22;;;15.30;100.00
77452;BME280;66537;52.370;4.832;2023-10-09T00:10:55;102099.81;;;15.40;100.00
77452;BME280;66537;52.370;4.832;2023-10-09T00:13:25;102095.44;;;15.41;100.00
77452;BME280;66537;52.370;4.832;2023-10-09T00:16:04;102103.06;;;15.48;100.00
77452;BME280;66537;52.370;4.832;2023-10-09T00:18:34;102093.47;;;15.49;100.00
77452;BME280;66537;52.370;4.832;2023-10-09T00:21:00;102079.44;;;15.53;100.00
77452;BME280;66537;52.370;4.832;2023-10-09T00:23:36;102077.81;;;15.50;100.00
77452;BME280;66537;52.370;4.832;2023-10-09T00:26:02;102084.94;;;15.44;100.00
77452;BME280;66537;52.370;4.832;2023-10-09T00:28:35;102091.72;;;15.49;100.00
77452;BME280;66537;52.370;4.832;2023-10-09T00:31:03;102080.44;;;15.49;100.00
77452;BME280;66537;52.370;4.832;2023-10-09T00:33:31;102076.03;;;15.51;100.00
77452;BME280;66537;52.370;4.832;2023-10-09T00:36:02;102071.44;;;15.59;100.00
77452;BME280;66537;52.370;4.832;2023-10-09T00:38:34;102071.41;;;15.60;100.00
77452;BME280;66537;52.370;4.832;2023-10-09T00:41:01;102070.56;;;15.60;100.00
77452;BME280;66537;52.370;4.832;2023-10-09T00:43:35;102060.03;;;15.63;100.00
77452;BME280;66537;52.370;4.832;2023-10-09T00:46:02;102054.81;;;15.63;100.00
77452;BME280;66537;52.370;4.832;2023-10-09T00:48:30;102061.81;;;15.61;100.00
77452;BME280;66537;52.370;4.832;2023-10-09T00:50:58;102054.69;;;15.67;100.00
77452;BME280;66537;52.370;4.832;2023-10-09T00:53:26;102059.47;;;15.81;100.00
77452;BME280;66537;52.370;4.832;2023-10-09T00:55:59;102063.94;;;15.77;100.00
77452;BME280;66537;52.370;4.832;2023-10-09T00:58:36;102064.78;;;15.78;100.00
77452;BME280;66537;52.370;4.832;2023-10-09T01:01:02;102056.81;;;15.82;100.00
77452;BME280;66537;52.370;4.832;2023-10-09T01:03:29;102053.22;;;15.86;100.00
77452;BME280;66537;52.370;4.832;2023-10-09T01:06:01;102046.25;;;15.85;100.00
77452;BME280;66537;52.370;4.832;2023-10-09T01:08:38;102051.69;;;15.79;100.00
77452;BME280;66537;52.370;4.832;2023-10-09T01:11:10;102040.28;;;15.82;100.00
77452;BME280;66537;52.370;4.832;2023-10-09T01:13:40;102036.75;;;15.84;100.00
77452;BME280;66537;52.370;4.832;2023-10-09T01:16:24;102036.00;;;15.81;100.00
77452;BME280;66537;52.370;4.832;2023-10-09T01:18:52;102022.03;;;15.82;100.00
77452;BME280;66537;52.370;4.832;2023-10-09T01:21:19;102026.50;;;15.78;100.00
77452;BME280;66537;52.370;4.832;2023-10-09T01:23:51;102028.09;;;15.82;100.00
77452;BME280;66537;52.370;4.832;2023-10-09T01:26:33;102013.44;;;15.78;100.00
77452;BME280;66537;52.370;4.832;2023-10-09T01:29:23;102022.78;;;15.85;100.00
77452;BME280;66537;52.370;4.832;2023-10-09T01:31:54;102014.13;;;15.85;100.00
77452;BME280;66537;52.370;4.832;2023-10-09T01:34:32;102014.94;;;15.87;100.00
77452;BME280;66537;52.370;4.832;2023-10-09T01:37:07;102003.31;;;15.95;100.00
77452;BME280;66537;52.370;4.832;2023-10-09T01:39:53;102001.56;;;15.96;100.00
77452;BME280;66537;52.370;4.832;2023-10-09T01:42:23;101992.81;;;15.97;100.00
77452;BME280;66537;52.370;4.832;2023-10-09T01:45:11;101998.81;;;16.00;100.00
77452;BME280;66537;52.370;4.832;2023-10-09T01:47:36;102005.44;;;16.10;100.00
77452;BME280;66537;52.370;4.832;2023-10-09T01:50:04;102000.78;;;16.20;100.00
77452;BME280;66537;52.370;4.832;2023-10-09T01:52:30;101992.91;;;16.21;100.00
77452;BME280;66537;52.370;4.832;2023-10-09T01:54:56;101996.94;;;16.30;100.00
77452;BME280;66537;52.370;4.832;2023-10-09T01:57:27;101994.13;;;16.36;100.00
77452;BME280;66537;52.370;4.832;2023-10-09T01:59:55;101994.13;;;16.62;100.00
77452;BME280;66537;52.370;4.832;2023-10-09T02:02:23;101990.81;;;16.80;100.00
77452;BME280;66537;52.370;4.832;2023-10-09T02:05:09;101987.94;;;16.88;100.00
77452;BME280;66537;52.370;4.832;2023-10-09T02:07:41;101978.84;;;16.98;100.00
77452;BME280;66537;52.370;4.832;2023-10-09T02:10:13;101989.88;;;17.06;100.00
77452;BME280;66537;52.370;4.832;2023-10-09T02:13:01;101995.81;;;17.11;100.00
77452;BME280;66537;52.370;4.832;2023-10-09T02:15:39;101996.25;;;17.22;100.00
77452;BME280;66537;52.370;4.832;2023-10-09T02:18:15;101986.75;;;17.20;100.00
77452;BME280;66537;52.370;4.832;2023-10-09T02:20:44;101992.78;;;17.22;100.00
77452;BME280;66537;52.370;4.832;2023-10-09T02:23:11;101984.13;;;17.20;100.00
77452;BME280;66537;52.370;4.832;2023-10-09T02:25:39;101971.00;;;17.21;100.00
77452;BME280;66537;52.370;4.832;2023-10-09T02:28:08;101976.50;;;17.13;100.00
77452;BME280;66537;52.370;4.832;2023-10-09T02:30:34;101973.97;;;17.12;100.00
77452;BME280;66537;52.370;4.832;2023-10-09T02:32:59;101961.47;;;17.20;100.00
77452;BME280;66537;52.370;4.832;2023-10-09T02:35:34;101955.38;;;17.20;100.00
77452;BME280;66537;52.370;4.832;2023-10-09T02:38:04;101943.59;;;17.31;100.00
77452;BME280;66537;52.370;4.832;2023-10-09T02:40:34;101944.50;;;17.30;100.00
77452;BME280;66537;52.370;4.832;2023-10-09T02:43:08;101948.44;;;17.19;100.00
77452;BME280;66537;52.370;4.832;2023-10-09T02:45:42;101951.66;;;17.25;100.00
77452;BME280;66537;52.370;4.832;2023-10-09T02:48:18;101939.22;;;17.32;100.00
77452;BME280;66537;52.370;4.832;2023-10-09T02:50:51;101940.97;;;17.31;100.00
77452;BME280;66537;52.370;4.832;2023-10-09T02:53:17;101949.66;;;17.32;100.00
77452;BME280;66537;52.370;4.832;2023-10-09T02:55:54;101946.59;;;17.44;100.00
77452;BME280;66537;52.370;4.832;2023-10-09T02:58:40;101963.91;;;17.46;100.00
77452;BME280;66537;52.370;4.832;2023-10-09T03:01:10;101945.66;;;17.45;100.00
77452;BME280;66537;52.370;4.832;2023-10-09T03:03:36;101940.34;;;17.46;100.00
77452;BME280;66537;52.370;4.832;2023-10-09T03:06:04;101930.34;;;17.36;100.00
77452;BME280;66537;52.370;4.832;2023-10-09T03:08:36;101936.06;;;17.45;100.00
77452;BME280;66537;52.370;4.832;2023-10-09T03:11:02;101945.78;;;17.42;100.00
77452;BME280;66537;52.370;4.832;2023-10-09T03:13:27;101945.66;;;17.45;100.00
77452;BME280;66537;52.370;4.832;2023-10-09T03:15:54;101959.47;;;17.50;100.00
77452;BME280;66537;52.370;4.832;2023-10-09T03:18:19;101974.50;;;17.43;100.00
77452;BME280;66537;52.370;4.832;2023-10-09T03:20:45;101985.66;;;17.48;100.00
77452;BME280;66537;52.370;4.832;2023-10-09T03:23:12;101987.38;;;17.49;100.00
77452;BME280;66537;52.370;4.832;2023-10-09T03:25:40;101992.53;;;17.51;100.00
77452;BME280;66537;52.370;4.832;2023-10-09T03:28:05;101992.97;;;17.39;100.00
77452;BME280;66537;52.370;4.832;2023-10-09T03:30:32;101984.28;;;17.38;100.00
77452;BME280;66537;52.370;4.832;2023-10-09T03:32:57;101976.38;;;17.40;100.00
77452;BME280;66537;52.370;4.832;2023-10-09T03:35:26;101977.19;;;17.42;100.00
77452;BME280;66537;52.370;4.832;2023-10-09T03:37:57;101980.94;;;17.35;100.00
77452;BME280;66537;52.370;4.832;2023-10-09T03:40:25;101984.47;;;17.34;100.00
77452;BME280;66537;52.370;4.832;2023-10-09T03:42:51;101972.34;;;17.31;100.00
77452;BME280;66537;52.370;4.832;2023-10-09T03:45:17;101970.59;;;17.32;100.00
77452;BME280;66537;52.370;4.832;2023-10-09T03:47:55;101981.66;;;17.38;100.00
77452;BME280;66537;52.370;4.832;2023-10-09T03:50:34;101972.13;;;17.37;100.00
77452;BME280;66537;52.370;4.832;2023-10-09T03:53:06;101971.25;;;17.37;100.00
77452;BME280;66537;52.370;4.832;2023-10-09T03:55:34;101969.66;;;17.33;100.00
77452;BME280;66537;52.370;4.832;2023-10-09T03:57:59;101963.34;;;17.38;100.00
77452;BME280;66537;52.370;4.832;2023-10-09T04:00:28;101957.94;;;17.43;100.00
77452;BME280;66537;52.370;4.832;2023-10-09T04:02:58;101954.28;;;17.47;100.00
77452;BME280;66537;52.370;4.832;2023-10-09T04:05:24;101951.97;;;17.39;100.00
77452;BME280;66537;52.370;4.832;2023-10-09T04:07:50;101950.78;;;17.48;100.00
77452;BME280;66537;52.370;4.832;2023-10-09T04:10:18;101941.81;;;17.55;100.00
77452;BME280;66537;52.370;4.832;2023-10-09T04:13:10;101933.88;;;17.56;100.00
77452;BME280;66537;52.370;4.832;2023-10-09T04:15:37;101938.47;;;17.51;100.00
77452;BME280;66537;52.370;4.832;2023-10-09T04:18:02;101927.94;;;17.53;100.00
77452;BME280;66537;52.370;4.832;2023-10-09T04:20:30;101927.00;;;17.54;100.00
77452;BME280;66537;52.370;4.832;2023-10-09T04:23:16;101947.91;;;17.55;100.00
77452;BME280;66537;52.370;4.832;2023-10-09T04:25:41;101957.38;;;17.58;100.00
77452;BME280;66537;52.370;4.832;2023-10-09T04:28:08;101952.03;;;17.61;100.00
77452;BME280;66537;52.370;4.832;2023-10-09T04:30:43;101952.91;;;17.60;100.00
77452;BME280;66537;52.370;4.832;2023-10-09T04:33:09;101948.72;;;17.56;100.00
77452;BME280;66537;52.370;4.832;2023-10-09T04:36:04;101946.78;;;17.61;100.00
77452;BME280;66537;52.370;4.832;2023-10-09T04:38:48;101954.88;;;17.55;100.00
77452;BME280;66537;52.370;4.832;2023-10-09T04:41:29;101967.00;;;17.57;100.00
77452;BME280;66537;52.370;4.832;2023-10-09T04:43:59;101970.28;;;17.62;100.00
77452;BME280;66537;52.370;4.832;2023-10-09T04:46:43;101976.78;;;17.52;100.00
77452;BME280;66537;52.370;4.832;2023-10-09T04:49:11;101980.47;;;17.47;100.00
77452;BME280;66537;52.370;4.832;2023-10-09T04:51:53;101990.91;;;17.47;100.00
77452;BME280;66537;52.370;4.832;2023-10-09T04:54:32;101996.91;;;17.50;100.00
77452;BME280;66537;52.370;4.832;2023-10-09T04:57:26;101990.13;;;17.45;100.00
77452;BME280;66537;52.370;4.832;2023-10-09T04:59:52;101993.47;;;17.50;100.00
77452;BME280;66537;52.370;4.832;2023-10-09T05:02:19;101998.78;;;17.47;100.00
77452;BME280;66537;52.370;4.832;2023-10-09T05:04:46;101994.22;;;17.52;100.00
77452;BME280;66537;52.370;4.832;2023-10-09T05:07:16;101999.59;;;17.49;100.00
77452;BME280;66537;52.370;4.832;2023-10-09T05:10:02;102015.00;;;17.56;100.00
77452;BME280;66537;52.370;4.832;2023-10-09T05:12:40;102012.53;;;17.52;100.00
77452;BME280;66537;52.370;4.832;2023-10-09T05:15:12;102017.03;;;17.50;100.00
77452;BME280;66537;52.370;4.832;2023-10-09T05:17:38;102013.56;;;17.48;100.00
77452;BME280;66537;52.370;4.832;2023-10-09T05:20:05;102009.94;;;17.52;100.00
77452;BME280;66537;52.370;4.832;2023-10-09T05:23:00;102007.84;;;17.61;100.00
77452;BME280;66537;52.370;4.832;2023-10-09T05:25:45;102006.13;;;17.60;100.00
77452;BME280;66537;52.370;4.832;2023-10-09T05:28:23;102001.03;;;17.57;100.00
77452;BME280;66537;52.370;4.832;2023-10-09T05:31:14;102009.59;;;17.61;100.00
77452;BME280;66537;52.370;4.832;2023-10-09T05:33:59;101987.88;;;17.59;100.00
77452;BME280;66537;52.370;4.832;2023-10-09T05:36:26;101983.44;;;17.61;100.00
77452;BME280;66537;52.370;4.832;2023-10-09T05:38:52;101987.72;;;17.62;100.00
77452;BME280;66537;52.370;4.832;2023-10-09T05:41:36;101971.25;;;17.60;100.00
77452;BME280;66537;52.370;4.832;2023-10-09T05:44:13;101984.16;;;17.64;100.00
77452;BME280;66537;52.370;4.832;2023-10-09T05:46:57;101983.13;;;17.68;100.00
77452;BME280;66537;52.370;4.832;2023-10-09T05:49:42;101996.38;;;17.64;100.00
77452;BME280;66537;52.370;4.832;2023-10-09T05:52:26;102008.72;;;17.60;100.00
77452;BME280;66537;52.370;4.832;2023-10-09T05:55:04;101989.78;;;17.54;100.00
77452;BME280;66537;52.370;4.832;2023-10-09T05:57:48;101959.31;;;17.53;100.00
77452;BME280;66537;52.370;4.832;2023-10-09T06:00:16;101958.72;;;17.45;100.00
77452;BME280;66537;52.370;4.832;2023-10-09T06:03:00;101982.28;;;17.45;100.00
77452;BME280;66537;52.370;4.832;2023-10-09T06:05:48;101966.66;;;17.43;100.00
77452;BME280;66537;52.370;4.832;2023-10-09T06:08:27;101949.38;;;17.39;100.00
77452;BME280;66537;52.370;4.832;2023-10-09T06:11:13;101945.88;;;17.39;100.00
77452;BME280;66537;52.370;4.832;2023-10-09T06:14:01;101973.44;;;17.49;100.00
77452;BME280;66537;52.370;4.832;2023-10-09T06:16:39;101995.22;;;17.49;100.00
77452;BME280;66537;52.370;4.832;2023-10-09T06:19:08;102000.16;;;17.57;100.00
77452;BME280;66537;52.370;4.832;2023-10-09T06:21:41;101999.72;;;17.44;100.00
77452;BME280;66537;52.370;4.832;2023-10-09T06:24:10;102007.31;;;17.52;100.00
77452;BME280;66537;52.370;4.832;2023-10-09T06:26:45;102005.75;;;17.46;100.00
77452;BME280;66537;52.370;4.832;2023-10-09T06:29:24;102015.44;;;17.44;100.00
77452;BME280;66537;52.370;4.832;2023-10-09T06:34:50;102012.09;;;17.41;100.00
77452;BME280;66537;52.370;4.832;2023-10-09T06:37:25;102006.13;;;17.37;100.00
77452;BME280;66537;52.370;4.832;2023-10-09T06:39:56;102006.97;;;17.38;100.00
77452;BME280;66537;52.370;4.832;2023-10-09T06:42:28;102013.03;;;17.38;100.00
77452;BME280;66537;52.370;4.832;2023-10-09T06:45:10;102011.13;;;17.43;100.00
77452;BME280;66537;52.370;4.832;2023-10-09T06:47:38;102006.69;;;17.45;100.00
77452;BME280;66537;52.370;4.832;2023-10-09T06:50:12;101994.63;;;17.41;100.00
77452;BME280;66537;52.370;4.832;2023-10-09T06:52:49;101998.34;;;17.36;100.00
77452;BME280;66537;52.370;4.832;2023-10-09T06:55:38;101998.09;;;17.42;100.00
77452;BME280;66537;52.370;4.832;2023-10-09T06:58:29;101986.50;;;17.49;100.00
77452;BME280;66537;52.370;4.832;2023-10-09T07:01:07;101973.44;;;17.49;100.00
77452;BME280;66537;52.370;4.832;2023-10-09T07:03:51;101976.91;;;17.49;100.00
77452;BME280;66537;52.370;4.832;2023-10-09T07:06:20;101963.69;;;17.52;100.00
77452;BME280;66537;52.370;4.832;2023-10-09T07:08:52;101954.22;;;17.50;100.00
77452;BME280;66537;52.370;4.832;2023-10-09T07:11:45;101945.44;;;17.51;100.00
77452;BME280;66537;52.370;4.832;2023-10-09T07:14:23;101938.38;;;17.53;100.00
77452;BME280;66537;52.370;4.832;2023-10-09T07:17:02;101946.00;;;17.59;100.00
77452;BME280;66537;52.370;4.832;2023-10-09T07:19:41;101958.84;;;17.65;100.00
77452;BME280;66537;52.370;4.832;2023-10-09T07:22:07;101970.03;;;17.68;100.00
77452;BME280;66537;52.370;4.832;2023-10-09T07:25:03;101980.66;;;17.85;100.00
77452;BME280;66537;52.370;4.832;2023-10-09T07:27:40;101984.16;;;17.86;100.00
77452;BME280;66537;52.370;4.832;2023-10-09T07:33:05;101980.84;;;17.81;100.00
77452;BME280;66537;52.370;4.832;2023-10-09T07:35:46;101976.16;;;17.89;100.00
77452;BME280;66537;52.370;4.832;2023-10-09T07:38:17;101973.03;;;18.01;100.00
77452;BME280;66537;52.370;4.832;2023-10-09T07:40:50;101969.38;;;18.05;100.00
77452;BME280;66537;52.370;4.832;2023-10-09T07:43:45;101984.53;;;18.19;100.00
77452;BME280;66537;52.370;4.832;2023-10-09T07:46:19;101977.84;;;18.32;100.00
77452;BME280;66537;52.370;4.832;2023-10-09T07:49:20;101997.53;;;18.20;100.00
77452;BME280;66537;52.370;4.832;2023-10-09T07:51:51;102007.91;;;18.23;100.00
77452;BME280;66537;52.370;4.832;2023-10-09T07:54:18;102012.13;;;18.27;100.00
77452;BME280;66537;52.370;4.832;2023-10-09T07:56:57;102026.25;;;18.23;100.00
77452;BME280;66537;52.370;4.832;2023-10-09T07:59:34;102031.19;;;18.29;100.00
77452;BME280;66537;52.370;4.832;2023-10-09T08:02:06;102038.47;;;18.23;100.00
77452;BME280;66537;52.370;4.832;2023-10-09T08:04:39;102034.81;;;18.27;100.00
77452;BME280;66537;52.370;4.832;2023-10-09T08:07:14;102054.13;;;18.46;100.00
77452;BME280;66537;52.370;4.832;2023-10-09T08:10:05;102050.72;;;18.44;100.00
77452;BME280;66537;52.370;4.832;2023-10-09T08:12:43;102062.06;;;18.64;100.00
77452;BME280;66537;52.370;4.832;2023-10-09T08:15:15;102067.81;;;18.72;100.00
77452;BME280;66537;52.370;4.832;2023-10-09T08:17:54;102073.06;;;18.92;100.00
77452;BME280;66537;52.370;4.832;2023-10-09T08:20:36;102079.47;;;18.85;100.00
77452;BME280;66537;52.370;4.832;2023-10-09T08:23:20;102078.50;;;18.88;100.00
77452;BME280;66537;52.370;4.832;2023-10-09T08:26:04;102083.16;;;19.02;100.00
77452;BME280;66537;52.370;4.832;2023-10-09T08:28:43;102079.56;;;19.04;100.00
77452;BME280;66537;52.370;4.832;2023-10-09T08:31:11;102093.97;;;18.94;100.00
77452;BME280;66537;52.370;4.832;2023-10-09T08:33:55;102089.78;;;18.90;100.00
77452;BME280;66537;52.370;4.832;2023-10-09T08:36:25;102090.63;;;18.90;100.00
77452;BME280;66537;52.370;4.832;2023-10-09T08:38:53;102092.25;;;18.93;100.00
77452;BME280;66537;52.370;4.832;2023-10-09T08:41:23;102094.88;;;18.93;100.00
77452;BME280;66537;52.370;4.832;2023-10-09T08:43:56;102099.47;;;18.68;100.00
77452;BME280;66537;52.370;4.832;2023-10-09T08:46:27;102097.84;;;18.85;100.00
77452;BME280;66537;52.370;4.832;2023-10-09T08:48:57;102103.09;;;19.06;100.00
77452;BME280;66537;52.370;4.832;2023-10-09T08:51:25;102105.78;;;19.04;100.00
77452;BME280;66537;52.370;4.832;2023-10-09T08:53:51;102104.66;;;19.10;100.00
77452;BME280;66537;52.370;4.832;2023-10-09T08:56:18;102120.41;;;19.10;100.00
77452;BME280;66537;52.370;4.832;2023-10-09T08:58:55;102116.00;;;19.10;100.00
77452;BME280;66537;52.370;4.832;2023-10-09T09:01:21;102120.41;;;19.10;100.00
77452;BME280;66537;52.370;4.832;2023-10-09T09:03:48;102116.31;;;19.23;100.00
77452;BME280;66537;52.370;4.832;2023-10-09T09:06:16;102121.75;;;19.18;100.00
77452;BME280;66537;52.370;4.832;2023-10-09T09:08:42;102112.81;;;19.22;100.00
77452;BME280;66537;52.370;4.832;2023-10-09T09:11:19;102105.88;;;19.41;100.00
77452;BME280;66537;52.370;4.832;2023-10-09T09:14:02;102113.69;;;19.43;100.00
77452;BME280;66537;52.370;4.832;2023-10-09T09:16:44;102109.56;;;19.56;100.00
77452;BME280;66537;52.370;4.832;2023-10-09T09:19:14;102115.53;;;19.41;100.00
77452;BME280;66537;52.370;4.832;2023-10-09T09:21:48;102107.09;;;19.53;100.00
77452;BME280;66537;52.370;4.832;2023-10-09T09:24:14;102109.75;;;19.33;100.00
77452;BME280;66537;52.370;4.832;2023-10-09T09:27:00;102104.75;;;19.47;100.00
77452;BME280;66537;52.370;4.832;2023-10-09T09:32:05;102104.38;;;19.36;100.00
77452;BME280;66537;52.370;4.832;2023-10-09T09:34:47;102101.69;;;19.17;100.00
77452;BME280;66537;52.370;4.832;2023-10-09T09:37:25;102102.56;;;19.18;100.00
77452;BME280;66537;52.370;4.832;2023-10-09T09:40:02;102100.13;;;19.33;100.00
77452;BME280;66537;52.370;4.832;2023-10-09T09:42:42;102102.06;;;19.28;100.00
77452;BME280;66537;52.370;4.832;2023-10-09T09:45:10;102094.13;;;19.30;100.00
77452;BME280;66537;52.370;4.832;2023-10-09T09:47:36;102096.66;;;19.33;100.00
77452;BME280;66537;52.370;4.832;2023-10-09T09:50:05;102103.25;;;19.41;100.00
77452;BME280;66537;52.370;4.832;2023-10-09T09:52:38;102105.63;;;19.27;100.00
77452;BME280;66537;52.370;4.832;2023-10-09T09:55:06;102103.97;;;19.45;100.00
77452;BME280;66537;52.370;4.832;2023-10-09T09:57:32;102103.63;;;19.52;100.00
77452;BME280;66537;52.370;4.832;2023-10-09T10:00:04;102102.41;;;19.41;100.00
77452;BME280;66537;52.370;4.832;2023-10-09T10:02:36;102118.44;;;19.53;100.00
77452;BME280;66537;52.370;4.832;2023-10-09T10:05:06;102126.47;;;19.50;100.00
77452;BME280;66537;52.370;4.832;2023-10-09T10:07:36;102138.88;;;19.84;100.00
77452;BME280;66537;52.370;4.832;2023-10-09T10:10:39;102153.50;;;19.71;100.00
77452;BME280;66537;52.370;4.832;2023-10-09T10:16:14;102142.06;;;19.53;100.00
77452;BME280;66537;52.370;4.832;2023-10-09T10:19:05;102138.75;;;19.87;100.00
77452;BME280;66537;52.370;4.832;2023-10-09T10:21:46;102143.50;;;19.79;100.00
77452;BME280;66537;52.370;4.832;2023-10-09T10:29:43;102140.59;;;19.66;100.00
77452;BME280;66537;52.370;4.832;2023-10-09T10:32:11;102141.03;;;19.76;100.00
77452;BME280;66537;52.370;4.832;2023-10-09T10:34:55;102138.59;;;19.53;100.00
77452;BME280;66537;52.370;4.832;2023-10-09T10:37:37;102136.06;;;19.70;100.00
77452;BME280;66537;52.370;4.832;2023-10-09T10:40:28;102134.75;;;19.60;100.00
77452;BME280;66537;52.370;4.832;2023-10-09T10:43:18;102135.25;;;19.87;100.00
77452;BME280;66537;52.370;4.832;2023-10-09T10:46:23;102132.19;;;19.96;100.00
77452;BME280;66537;52.370;4.832;2023-10-09T10:48:49;102134.91;;;19.94;100.00
77452;BME280;66537;52.370;4.832;2023-10-09T10:51:14;102134.66;;;20.17;100.00
77452;BME280;66537;52.370;4.832;2023-10-09T10:53:50;102139.78;;;20.39;100.00
77452;BME280;66537;52.370;4.832;2023-10-09T10:56:18;102136.94;;;20.43;100.00
77452;BME280;66537;52.370;4.832;2023-10-09T10:58:54;102142.94;;;20.28;100.00
77452;BME280;66537;52.370;4.832;2023-10-09T11:01:34;102136.25;;;20.03;100.00
77452;BME280;66537;52.370;4.832;2023-10-09T11:04:23;102139.78;;;20.02;100.00
77452;BME280;66537;52.370;4.832;2023-10-09T11:06:55;102143.16;;;20.24;100.00
77452;BME280;66537;52.370;4.832;2023-10-09T11:09:48;102146.47;;;20.09;100.00
77452;BME280;66537;52.370;4.832;2023-10-09T11:15:05;102142.69;;;20.14;100.00
77452;BME280;66537;52.370;4.832;2023-10-09T11:17:32;102134.03;;;20.12;100.00
77452;BME280;66537;52.370;4.832;2023-10-09T11:20:02;102137.31;;;19.99;100.00
77452;BME280;66537;52.370;4.832;2023-10-09T11:22:49;102139.66;;;20.05;100.00
77452;BME280;66537;52.370;4.832;2023-10-09T11:25:33;102143.56;;;19.96;100.00
77452;BME280;66537;52.370;4.832;2023-10-09T11:27:59;102144.56;;;19.94;100.00
77452;BME280;66537;52.370;4.832;2023-10-09T11:30:40;102146.91;;;19.81;100.00
77452;BME280;66537;52.370;4.832;2023-10-09T11:33:06;102148.25;;;19.71;100.00
77452;BME280;66537;52.370;4.832;2023-10-09T11:35:40;102147.69;;;19.64;100.00
77452;BME280;66537;52.370;4.832;2023-10-09T11:38:08;102138.25;;;19.60;100.00
77452;BME280;66537;52.370;4.832;2023-10-09T11:40:46;102131.09;;;19.64;100.00
77452;BME280;66537;52.370;4.832;2023-10-09T11:43:18;102131.50;;;19.55;100.00
77452;BME280;66537;52.370;4.832;2023-10-09T11:45:49;102126.59;;;19.85;100.00
77452;BME280;66537;52.370;4.832;2023-10-09T11:48:21;102133.19;;;19.56;100.00
77452;BME280;66537;52.370;4.832;2023-10-09T11:50:58;102133.97;;;19.39;100.00
77452;BME280;66537;52.370;4.832;2023-10-09T11:53:40;102131.13;;;19.44;100.00
77452;BME280;66537;52.370;4.832;2023-10-09T11:56:08;102125.44;;;19.34;100.00
77452;BME280;66537;52.370;4.832;2023-10-09T11:58:38;102124.97;;;19.45;100.00
77452;BME280;66537;52.370;4.832;2023-10-09T12:01:13;102131.72;;;19.50;100.00
77452;BME280;66537;52.370;4.832;2023-10-09T12:03:51;102136.88;;;19.33;100.00
77452;BME280;66537;52.370;4.832;2023-10-09T12:06:19;102140.41;;;19.32;100.00
77452;BME280;66537;52.370;4.832;2023-10-09T12:08:47;102135.19;;;19.11;100.00
77452;BME280;66537;52.370;4.832;2023-10-09T12:11:13;102135.16;;;19.12;100.00
77452;BME280;66537;52.370;4.832;2023-10-09T12:13:39;102131.00;;;19.07;100.00
77452;BME280;66537;52.370;4.832;2023-10-09T12:16:07;102128.72;;;18.99;100.00
77452;BME280;66537;52.370;4.832;2023-10-09T12:18:36;102132.47;;;19.14;100.00
77452;BME280;66537;52.370;4.832;2023-10-09T12:21:04;102140.09;;;19.18;100.00
77452;BME280;66537;52.370;4.832;2023-10-09T12:23:31;102138.41;;;18.97;100.00
77452;BME280;66537;52.370;4.832;2023-10-09T12:26:03;102140.41;;;18.92;100.00
77452;BME280;66537;52.370;4.832;2023-10-09T12:28:29;102134.22;;;18.93;100.00
77452;BME280;66537;52.370;4.832;2023-10-09T12:30:55;102135.59;;;19.02;100.00
77452;BME280;66537;52.370;4.832;2023-10-09T12:33:28;102133.84;;;19.02;100.00
77452;BME280;66537;52.370;4.832;2023-10-09T12:35:54;102140.63;;;19.26;100.00
77452;BME280;66537;52.370;4.832;2023-10-09T12:38:27;102132.13;;;19.21;100.00
77452;BME280;66537;52.370;4.832;2023-10-09T12:41:05;102137.81;;;19.11;100.00
77452;BME280;66537;52.370;4.832;2023-10-09T12:43:43;102138.34;;;19.19;100.00
77452;BME280;66537;52.370;4.832;2023-10-09T12:46:08;102125.03;;;19.23;100.00
77452;BME280;66537;52.370;4.832;2023-10-09T12:48:34;102133.91;;;19.41;100.00
77452;BME280;66537;52.370;4.832;2023-10-09T12:51:01;102132.31;;;19.17;100.00
77452;BME280;66537;52.370;4.832;2023-10-09T12:53:32;102131.75;;;19.10;100.00
77452;BME280;66537;52.370;4.832;2023-10-09T12:55:58;102137.22;;;19.24;100.00
77452;BME280;66537;52.370;4.832;2023-10-09T12:58:23;102129.31;;;19.06;100.00
77452;BME280;66537;52.370;4.832;2023-10-09T13:00:52;102133.88;;;19.21;100.00
77452;BME280;66537;52.370;4.832;2023-10-09T13:03:17;102132.22;;;19.18;100.00
77452;BME280;66537;52.370;4.832;2023-10-09T13:05:44;102133.63;;;19.27;100.00
77452;BME280;66537;52.370;4.832;2023-10-09T13:08:28;102131.94;;;19.06;100.00
77452;BME280;66537;52.370;4.832;2023-10-09T13:11:04;102128.53;;;19.04;100.00
77452;BME280;66537;52.370;4.832;2023-10-09T13:13:40;102135.94;;;18.94;100.00
77452;BME280;66537;52.370;4.832;2023-10-09T13:16:19;102134.28;;;19.12;100.00
77452;BME280;66537;52.370;4.832;2023-10-09T13:21:17;102129.69;;;19.37;100.00
77452;BME280;66537;52.370;4.832;2023-10-09T13:23:42;102133.13;;;19.57;100.00
77452;BME280;66537;52.370;4.832;2023-10-09T13:26:14;102121.56;;;19.61;100.00
77452;BME280;66537;52.370;4.832;2023-10-09T13:28:50;102122.84;;;19.71;100.00
77452;BME280;66537;52.370;4.832;2023-10-09T13:31:16;102137.63;;;19.74;100.00
77452;BME280;66537;52.370;4.832;2023-10-09T13:33:43;102123.28;;;19.62;100.00
77452;BME280;66537;52.370;4.832;2023-10-09T13:36:12;102128.56;;;19.61;100.00